Weather at Jotun A Platform

Public forecast

Using degrees Celsius for public forecast. Weather courtesy of forecast.io.

Closest aviation weather report (METAR) to Jotun A Platform

Closest report is Oseberg A Platform, 64.0 nm (118.5 km) NNE.

2023/04/02 11:20 (retrieved 19 minutes ago)

ENOA 021120Z 29010KT 9999 BKN045 07/03 Q1029 W///S3

Closest aviation forecast (TAF) to Jotun A Platform

Closest forecast is Oseberg A Platform, 64.0 nm (118.5 km) NNE.

2023/04/02 09:36 (retrieved 2 hours ago)

TAF TAF ENOA 020800Z 0209/0309 27012KT 9999 FEW020 BKN040 BECMG 0219/0221 21020KT